Skip Navigation Links
NOAA logo - Click to go to the NOAA homepage
NOAA's National Weather Service
Alaska Aviation Weather Unit
  NWS logo - Click to go to the NWS homepage
Left Navbar Graphic     17 AKDT = 01 GMT

   
NOAA is celebrating 200 years of science, service, and stewardship. Visit the NOAA 200th celebration Web site to learn more.
USA.gov is the U.S. Government's official Web portal to all Federal, state and local government Web resources and services.
Facebook
NWS on Facebook

Important Change Regarding the AAWU Web Presence

 

Over the last several months, the AAWU has been working to navigate its webpages to a nationally supported server. Security, as well as other needs, have necessitated the change.  In the process, we have made an effort to enhance the functionality of our website, as well as some of our products. As of June 27, 2017, aawu.arh.noaa.gov will be discontinued. The new AAWU web address is weather.gov/aawu. It is now live and will run in-parallel with the old site until it is discontinued. Please send any feedback or questions regarding the new webpages to nws.ar.aawu.webauthors@noaa.gov.  Thank you for your patience during this time of transition.
AAWU Home :: Display TAF Add Bookmark
METAR PADM 251956Z AUTO 25004KT 10SM BKN034 13/08 A3000 RMK AO2 SLP166
     T01280083=

METAR PADM 252056Z AUTO 22006KT 10SM CLR 13/08 A2998 RMK AO2 SLP161
    T01330083 56019=

METAR PADM 252156Z AUTO 21007KT 10SM SCT027 14/09 A2996 RMK AO2 SLP152
     T01440089=

SPECI PADM 252204Z AUTO 21006KT 10SM BKN027 14/08 A2995 RMK AO2=

SPECI PADM 252233Z AUTO 22007KT 10SM SCT027 15/09 A2994 RMK AO2=

SPECI PADM 252244Z AUTO 23009KT 10SM BKN029 16/09 A2994 RMK AO2=

METAR PADM 252256Z AUTO 20009KT 10SM SCT029 16/09 A2993 RMK AO2 SLP143
     T01560089=

METAR PADM 252356Z AUTO 22007KT 10SM SCT032 SCT060 17/09 A2990 RMK AO2
     SLP134 T01720089 10172 20117 58027=


NOAA's National Weather Service
Alaska Aviation Weather Unit
6930 Sand Lake Road
Anchorage, AK 99502-1845
Disclaimer
Credits
Glossary
Privacy Policy
About Us
Career Opportunities
Contact AAWU Internet Services Site last modified: April, 17th 2012